Detalii statie FIRST FARMS FAUREI [00001992]

Toti senzorii

Date Temperatura solului [C]Precipitatii [mm]Voltaj baterie [mV]Leaf Wetness [Min]HC Air temperature [C]HC Relative humidity [%]Punctul de roua [C]
medieminmaxsumaultimatimpmedieminmaxmediemediemin
2019-04-19 19:00:00 11.4 11.2 11.6 0.4 6854 8.12 7.87 8.68 0 0 0
2019-04-19 20:00:00 11 10.8 11.3 0.4 6826 7.52 7.11 8.24 0 0 0
2019-04-19 21:00:00 10.6 10.5 10.9 0 6826 7.16 6.89 7.6 0 0 0
2019-04-19 22:00:00 10.3 10.1 10.5 0 6826 6.48 6.21 6.86 0 0 0
2019-04-19 23:00:00 9.8 9.7 10.1 0 6806 5.59 5.25 6.09 0 0 0
2019-04-20 00:00:00 9.5 9.2 9.8 0 6796 5.45 4.98 5.75 0 0 0
2019-04-20 01:00:00 9.1 9 9.4 0 6796 5.29 4.82 6.21 0 0 0
2019-04-20 02:00:00 8.9 8.8 9.1 0 6786 6.63 6.26 7.25 0 0 0
2019-04-20 03:00:00 8.6 8.6 8.9 0 6786 6.19 5.22 6.76 0 0 0
2019-04-20 04:00:00 8.5 8.3 8.6 0 6786 4.46 4.14 4.93 0 0 0
2019-04-20 05:00:00 8.2 8.2 8.4 0 6776 4.43 4 4.74 0 0 0
2019-04-20 06:00:00 8 7.6 8.2 0 6776 3.97 3.76 4.28 0 0 0
2019-04-20 07:00:00 7.7 7.6 7.9 0 6904 5.35 4.31 6.58 0 0 0
2019-04-20 08:00:00 7.6 7.4 7.7 0 7206 7.89 6.83 8.82 0 0 0
2019-04-20 09:00:00 7.7 7.6 8 0 7206 9.82 8.92 10.7 0 0 0
2019-04-20 10:00:00 8.1 7.9 8.4 0 7206 11.78 10.76 12.59 0 0 0
2019-04-20 11:00:00 8.6 8.3 9.1 0 7206 12.86 12.41 13.26 0 0 0
2019-04-20 12:00:00 9.3 8.9 9.7 0 7128 13.14 12.35 14.12 0 0 0
2019-04-20 13:00:00 9.8 9.7 10 0 7196 13.69 12.65 15.08 0 0 0
2019-04-20 14:00:00 10.2 10 10.4 0 7148 14.1 13.16 15.22 0 0 0
2019-04-20 15:00:00 10.5 10.4 10.7 0 7196 14.74 13.6 15.7 0 0 0
2019-04-20 16:00:00 10.9 10.7 11.2 0 7196 14.73 13.75 15.68 0 0 0
2019-04-20 17:00:00 11.1 11 11.3 0 7186 14.3 13.47 15.3 0 0 0
2019-04-20 18:00:00 11.1 11.1 11.3 0 7186 13.31 12.58 13.83 0 0 0
2019-04-20 19:00:00 11 10.9 11.2 0 6854 10.98 9.6 12.44 0 0 0
2019-04-20 20:00:00 10.8 10.7 10.9 0 6826 7.99 6.06 9.2 0 0 0
2019-04-20 21:00:00 10.4 10.2 10.7 0 6806 6.43 5.96 7.01 0.14 0
2019-04-20 22:00:00 9.9 9.7 10.2 0 6796 4.13 2.99 5.87 1.67 0
2019-04-20 23:00:00 9.5 9.4 9.7 0 6786 3.11 2.51 3.6 1.24 0
2019-04-21 00:00:00 9.2 9.1 9.4 0 6776 2.62 2 3.1 6.4 0
2019-04-21 01:00:00 8.7 8.6 9 0 6766 2.2 1.64 3.07 1.72 0
2019-04-21 02:00:00 8.4 8.3 8.7 0 6738 2.57 1.68 3.39 5.64 -12.9 0
2019-04-21 03:00:00 8.1 8 8.2 0 6728 2.35 1.91 2.89 2.94 0
2019-04-21 04:00:00 7.8 7.7 8 0 6738 2.92 2.53 3.13 2.34 -26.7 0
2019-04-21 05:00:00 7.6 7.5 7.8 0 6738 3.57 3.35 3.79 1.44 -12 0
2019-04-21 06:00:00 7.5 7.5 7.7 0 6756 3.82 3.59 4.41 0.74 -14.7 0
2019-04-21 07:00:00 7.3 7.3 7.5 0 6914 5.03 4.54 6.21 0.62 -6.2 0
2019-04-21 08:00:00 7.4 7.2 7.6 0 7196 8.41 6.48 10.65 4.9 -5.3 0
2019-04-21 09:00:00 7.7 7.5 7.9 0 7206 11.54 10.66 12.21 3.85 -12.4 0
2019-04-21 10:00:00 8.2 7.9 8.5 0 7206 12.59 11.56 13.23 1.46 -17.2 0
2019-04-21 11:00:00 8.8 8.4 9.3 0 7206 14.22 13.47 14.86 7.49 -12.6 0
2019-04-21 12:00:00 9.8 9.4 10.4 0 7196 16.23 15 17.19 6.14 0
2019-04-21 13:00:00 10.9 10.4 11.5 0 7196 18.06 17.45 18.63 16.58 -9 -19.8
2019-04-21 14:00:00 12 11.5 12.5 0 7196 18.44 17.8 19.19 41.58 4.2 -6.5
2019-04-21 15:00:00 13 12.7 13.3 0 7196 18.65 17.5 19.33 61.8 11 8.6
2019-04-21 16:00:00 13.5 13.3 13.8 0 7070 18.55 17.38 19.73 68.9 12.5 8.9
2019-04-21 17:00:00 13.8 13.7 14 0 7030 18.08 17.2 18.65 59.11 9.8 7.6
2019-04-21 18:00:00 13.9 13.8 14.1 0 6942 16.18 14.87 17.71 86.79 13.7 11.5